createdAt,value
2018-07-07T00:00:44.950Z,8.00
2018-07-07T00:03:14.899Z,5.20
2018-07-07T00:05:45.985Z,6.20
2018-07-07T00:08:15.517Z,7.80
2018-07-07T00:10:45.764Z,7.00
2018-07-07T00:13:14.921Z,7.00
2018-07-07T00:15:45.832Z,7.00
2018-07-07T00:18:15.124Z,6.00
2018-07-07T00:20:44.991Z,5.60
2018-07-07T00:23:14.472Z,6.20
2018-07-07T00:25:45.723Z,7.20
2018-07-07T00:28:14.804Z,4.80
2018-07-07T00:30:45.176Z,7.00
2018-07-07T00:33:16.040Z,7.60
2018-07-07T00:35:51.135Z,4.20
2018-07-07T00:38:20.776Z,7.00
2018-07-07T00:40:50.325Z,7.00
2018-07-07T00:43:23.849Z,7.00
2018-07-07T00:45:53.383Z,7.40
2018-07-07T00:48:23.867Z,6.20
2018-07-07T00:50:54.543Z,5.80
2018-07-07T00:53:25.049Z,7.00
2018-07-07T00:55:54.489Z,6.60
2018-07-07T00:58:24.760Z,6.60
2018-07-07T01:00:55.902Z,5.40
2018-07-07T01:03:26.248Z,4.40
2018-07-07T01:05:56.823Z,7.00
2018-07-07T01:08:30.979Z,6.60
2018-07-07T01:11:00.511Z,7.00
2018-07-07T01:13:29.894Z,4.40
2018-07-07T01:15:59.229Z,5.00
2018-07-07T01:18:29.484Z,6.20
2018-07-07T01:20:58.819Z,5.80
2018-07-07T01:23:28.753Z,5.00
2018-07-07T01:25:57.840Z,6.20
2018-07-07T01:28:30.932Z,2.00
2018-07-07T01:31:00.352Z,4.60
2018-07-07T01:33:29.536Z,4.80
2018-07-07T01:35:59.448Z,4.40
2018-07-07T01:38:28.879Z,3.00
2018-07-07T01:40:58.483Z,3.20
2018-07-07T01:43:30.474Z,5.20
2018-07-07T01:46:01.634Z,4.00
2018-07-07T01:48:33.246Z,4.00
2018-07-07T01:51:03.136Z,4.80
2018-07-07T01:53:32.881Z,5.00
2018-07-07T01:56:02.816Z,5.00
2018-07-07T01:58:32.467Z,5.80
2018-07-07T02:01:02.599Z,5.00
2018-07-07T02:03:33.558Z,4.00
2018-07-07T02:06:05.693Z,5.00
2018-07-07T02:08:35.124Z,5.80
2018-07-07T02:11:05.178Z,3.80
2018-07-07T02:13:34.547Z,4.40
2018-07-07T02:16:04.048Z,4.60
2018-07-07T02:18:33.351Z,3.80
2018-07-07T02:21:02.724Z,6.20
2018-07-07T02:23:32.167Z,4.00
2018-07-07T02:26:01.476Z,5.00
2018-07-07T02:28:30.849Z,3.40
2018-07-07T02:31:01.945Z,4.00
2018-07-07T02:33:31.259Z,4.40
2018-07-07T02:36:00.755Z,4.80
2018-07-07T02:38:30.021Z,4.00
2018-07-07T02:40:59.312Z,4.80
2018-07-07T02:43:28.623Z,7.00
2018-07-07T02:45:58.368Z,5.00
2018-07-07T02:48:27.749Z,3.60
2018-07-07T02:50:57.236Z,3.00
2018-07-07T02:53:26.848Z,5.00
2018-07-07T02:55:56.013Z,4.00
2018-07-07T02:58:25.329Z,2.00
2018-07-07T03:00:54.907Z,3.80
2018-07-07T03:03:25.138Z,4.60
2018-07-07T03:05:54.380Z,5.00
2018-07-07T03:08:23.633Z,3.60
2018-07-07T03:10:52.934Z,4.20
2018-07-07T03:13:22.517Z,2.40
2018-07-07T03:15:51.824Z,4.00
2018-07-07T03:18:21.241Z,4.80
2018-07-07T03:20:50.712Z,4.00
2018-07-07T03:23:20.340Z,3.20
2018-07-07T03:25:49.724Z,4.40
2018-07-07T03:28:19.245Z,4.00
2018-07-07T03:30:48.544Z,1.00
2018-07-07T03:33:17.952Z,3.00
2018-07-07T03:35:47.557Z,5.00
2018-07-07T03:38:16.836Z,4.00
2018-07-07T03:40:45.949Z,2.00
2018-07-07T03:43:15.150Z,4.00
2018-07-07T03:45:44.804Z,4.00
2018-07-07T03:48:14.056Z,4.20
2018-07-07T03:50:43.555Z,4.00
2018-07-07T03:53:12.872Z,4.80
2018-07-07T03:55:42.061Z,4.20
2018-07-07T03:58:12.076Z,3.60
2018-07-07T04:00:41.678Z,3.60
2018-07-07T04:03:11.080Z,2.00
2018-07-07T04:05:40.278Z,4.00
2018-07-07T04:08:09.377Z,4.00
2018-07-07T04:10:38.681Z,4.00
2018-07-07T04:13:09.718Z,3.20
2018-07-07T04:15:41.065Z,4.00
2018-07-07T04:18:10.377Z,1.00
2018-07-07T04:20:39.692Z,1.00
2018-07-07T04:23:09.262Z,3.60
2018-07-07T04:25:38.592Z,4.00
2018-07-07T04:28:07.912Z,4.00
2018-07-07T04:30:37.562Z,3.20
2018-07-07T04:33:07.084Z,3.00
2018-07-07T04:35:36.493Z,3.00
2018-07-07T04:38:05.918Z,4.00
2018-07-07T04:40:35.339Z,4.00
2018-07-07T04:43:04.620Z,3.20
2018-07-07T04:45:34.652Z,2.00
2018-07-07T04:48:04.352Z,4.00
2018-07-07T04:50:33.777Z,2.40
2018-07-07T04:53:04.492Z,2.00
2018-07-07T04:55:33.887Z,3.20
2018-07-07T04:58:03.709Z,3.00
2018-07-07T05:00:34.005Z,2.00
2018-07-07T05:03:03.418Z,2.40
2018-07-07T05:05:33.136Z,4.00
2018-07-07T05:08:02.340Z,2.00
2018-07-07T05:10:31.416Z,1.00
2018-07-07T05:13:04.080Z,3.00
2018-07-07T05:15:33.465Z,2.00
2018-07-07T05:18:03.525Z,1.40
2018-07-07T05:20:33.924Z,1.40
2018-07-07T05:23:03.376Z,3.00
2018-07-07T05:25:35.005Z,1.60
2018-07-07T05:28:04.172Z,2.00
2018-07-07T05:30:33.643Z,2.00
2018-07-07T05:33:03.505Z,2.40
2018-07-07T05:35:37.572Z,4.00
2018-07-07T05:38:06.700Z,2.00
2018-07-07T05:40:36.472Z,4.00
2018-07-07T05:43:11.608Z,2.40
2018-07-07T05:45:40.720Z,2.00
2018-07-07T05:48:10.601Z,2.40
2018-07-07T05:50:39.856Z,2.80
2018-07-07T05:53:08.944Z,2.00
2018-07-07T05:55:38.944Z,3.60
2018-07-07T05:58:08.260Z,2.00
2018-07-07T06:00:38.407Z,2.00
2018-07-07T06:03:07.742Z,3.00
2018-07-07T06:05:37.116Z,1.00
2018-07-07T06:08:06.754Z,2.40
2018-07-07T06:10:37.336Z,2.00
2018-07-07T06:13:07.405Z,2.80
2018-07-07T06:15:36.767Z,1.20
2018-07-07T06:18:06.721Z,1.20
2018-07-07T06:20:36.784Z,1.80
2018-07-07T06:23:05.873Z,1.60
2018-07-07T06:25:34.981Z,1.20
2018-07-07T06:28:05.117Z,1.80
2018-07-07T06:30:34.713Z,1.60
2018-07-07T06:33:03.900Z,2.00
2018-07-07T06:35:33.263Z,1.20
2018-07-07T06:38:02.638Z,1.60
2018-07-07T06:40:32.088Z,1.80
2018-07-07T06:43:01.461Z,0.00
2018-07-07T06:45:30.873Z,1.00
2018-07-07T06:48:00.218Z,3.60
2018-07-07T06:50:29.286Z,1.20
2018-07-07T06:52:58.384Z,1.80
2018-07-07T06:55:27.926Z,1.00
2018-07-07T06:57:57.380Z,1.80
2018-07-07T07:00:26.431Z,2.00
2018-07-07T07:02:56.557Z,2.00
2018-07-07T07:05:25.684Z,1.00
2018-07-07T07:07:55.107Z,1.80
2018-07-07T07:10:24.261Z,2.00
2018-07-07T07:12:53.592Z,1.00
2018-07-07T07:15:22.656Z,2.00
2018-07-07T07:17:52.445Z,1.80
2018-07-07T07:20:21.776Z,1.80
2018-07-07T07:22:51.195Z,1.00
2018-07-07T07:25:21.156Z,1.40
2018-07-07T07:27:50.266Z,1.00
2018-07-07T07:30:19.716Z,1.00
2018-07-07T07:32:49.193Z,1.00
2018-07-07T07:35:21.308Z,1.80
2018-07-07T07:37:51.283Z,1.00
2018-07-07T07:40:20.945Z,1.00
2018-07-07T07:42:50.680Z,1.00
2018-07-07T07:45:22.283Z,2.00
2018-07-07T07:47:52.737Z,1.00
2018-07-07T07:50:22.932Z,2.00
2018-07-07T07:52:56.377Z,1.00
2018-07-07T07:55:25.796Z,1.00
2018-07-07T07:57:55.137Z,1.00
2018-07-07T08:00:25.584Z,1.00
2018-07-07T08:02:54.941Z,1.00
2018-07-07T08:05:24.045Z,0.40
2018-07-07T08:07:53.299Z,1.00
2018-07-07T08:10:22.917Z,1.00
2018-07-07T08:12:52.318Z,1.60
2018-07-07T08:15:22.324Z,1.00
2018-07-07T08:17:52.165Z,1.00
2018-07-07T08:20:21.264Z,1.00
2018-07-07T08:22:51.424Z,1.80
2018-07-07T08:25:23.291Z,1.40
2018-07-07T08:27:52.420Z,1.00
2018-07-07T08:30:22.846Z,1.60
2018-07-07T08:32:51.914Z,1.00
2018-07-07T08:35:24.031Z,2.00
2018-07-07T08:37:54.017Z,2.00
2018-07-07T08:40:23.227Z,2.00
2018-07-07T08:42:53.215Z,3.60
2018-07-07T08:45:23.485Z,2.00
2018-07-07T08:47:52.837Z,2.00
2018-07-07T08:50:22.226Z,1.60
2018-07-07T08:52:51.336Z,1.40
2018-07-07T08:55:21.406Z,2.00
2018-07-07T08:57:52.543Z,2.00
2018-07-07T09:00:21.656Z,2.00
2018-07-07T09:02:51.013Z,1.80
2018-07-07T09:05:21.604Z,2.00
2018-07-07T09:07:51.389Z,1.60
2018-07-07T09:10:20.544Z,1.80
2018-07-07T09:12:49.850Z,1.00
2018-07-07T09:15:19.274Z,2.20
2018-07-07T09:17:50.232Z,2.60
2018-07-07T09:20:19.364Z,3.60
2018-07-07T09:22:48.889Z,2.00
2018-07-07T09:25:18.247Z,2.00
2018-07-07T09:27:47.971Z,3.80
2018-07-07T09:30:18.208Z,4.00
2018-07-07T09:32:47.921Z,4.40
2018-07-07T09:35:17.798Z,5.00
2018-07-07T09:37:47.686Z,3.60
2018-07-07T09:40:17.709Z,5.00
2018-07-07T09:42:47.096Z,4.00
2018-07-07T09:45:17.465Z,4.20
2018-07-07T09:47:48.738Z,4.00
2018-07-07T09:50:17.832Z,4.80
2018-07-07T09:52:49.328Z,3.60
2018-07-07T09:55:20.619Z,4.00
2018-07-07T09:57:55.577Z,2.00
2018-07-07T10:00:30.352Z,1.00
2018-07-07T10:02:59.503Z,2.00
2018-07-07T10:05:30.577Z,3.00
2018-07-07T10:08:02.432Z,2.00
2018-07-07T10:10:36.888Z,4.00
2018-07-07T10:13:08.285Z,2.00
2018-07-07T10:15:39.324Z,3.20
2018-07-07T10:18:08.637Z,2.00
2018-07-07T10:20:38.582Z,2.00
2018-07-07T10:23:08.346Z,4.00
2018-07-07T10:25:37.439Z,2.00
2018-07-07T10:28:08.615Z,2.00
2018-07-07T10:30:40.715Z,2.00
2018-07-07T10:33:19.325Z,2.00
2018-07-07T10:35:50.685Z,2.40
2018-07-07T10:38:23.429Z,1.80
2018-07-07T10:40:56.705Z,3.60
2018-07-07T10:43:32.752Z,2.80
2018-07-07T10:46:10.927Z,3.60
2018-07-07T10:48:43.293Z,2.00
2018-07-07T10:51:12.442Z,2.00
2018-07-07T10:53:43.819Z,4.00
2018-07-07T10:56:13.170Z,3.20
2018-07-07T10:58:45.690Z,3.20
2018-07-07T11:01:15.765Z,2.00
2018-07-07T11:03:47.840Z,4.00
2018-07-07T11:06:16.982Z,2.80
2018-07-07T11:08:46.520Z,2.00
2018-07-07T11:11:18.662Z,2.00
2018-07-07T11:13:50.540Z,3.20
2018-07-07T11:16:20.210Z,2.00
2018-07-07T11:18:49.272Z,1.60
2018-07-07T11:21:18.896Z,2.00
2018-07-07T11:23:49.201Z,2.00
2018-07-07T11:26:19.310Z,4.00
2018-07-07T11:28:50.570Z,2.00
2018-07-07T11:31:19.961Z,2.00
2018-07-07T11:33:50.206Z,4.00
2018-07-07T11:36:20.239Z,2.00
2018-07-07T11:38:53.352Z,4.00
2018-07-07T11:41:25.361Z,3.00
2018-07-07T11:43:58.131Z,2.00
2018-07-07T11:46:27.277Z,3.20
2018-07-07T11:48:57.845Z,3.00
2018-07-07T11:51:27.363Z,3.80
2018-07-07T11:53:57.742Z,4.00
2018-07-07T11:56:34.283Z,2.80
2018-07-07T11:59:04.961Z,4.60
2018-07-07T12:01:35.496Z,5.00
2018-07-07T12:04:05.869Z,4.80
2018-07-07T12:06:37.801Z,4.00
2018-07-07T12:09:08.196Z,4.40
2018-07-07T12:11:38.506Z,3.40
2018-07-07T12:14:09.188Z,3.00
2018-07-07T12:16:38.919Z,4.00
2018-07-07T12:19:09.593Z,4.40
2018-07-07T12:21:39.282Z,5.20
2018-07-07T12:24:09.118Z,4.20
2018-07-07T12:26:40.008Z,5.40
2018-07-07T12:29:09.204Z,4.40
2018-07-07T12:31:40.443Z,3.00
2018-07-07T12:34:12.473Z,4.40
2018-07-07T12:36:42.397Z,4.00
2018-07-07T12:39:13.369Z,3.60
2018-07-07T12:41:44.744Z,4.00
2018-07-07T12:44:14.853Z,3.80
2018-07-07T12:46:45.863Z,1.80
2018-07-07T12:49:17.780Z,4.80
2018-07-07T12:51:47.935Z,4.40
2018-07-07T12:54:18.273Z,3.00
2018-07-07T12:56:48.602Z,3.80
2018-07-07T12:59:18.229Z,3.20
2018-07-07T13:01:47.629Z,4.00
2018-07-07T13:04:22.674Z,2.40
2018-07-07T13:06:53.310Z,2.40
2018-07-07T13:09:27.716Z,4.00
2018-07-07T13:11:56.953Z,1.60
2018-07-07T13:14:26.155Z,4.00
2018-07-07T13:16:55.794Z,2.00
2018-07-07T13:19:26.407Z,3.20
2018-07-07T13:21:56.825Z,2.20
2018-07-07T13:24:27.162Z,1.00
2018-07-07T13:26:58.589Z,1.40
2018-07-07T13:29:27.781Z,2.00
2018-07-07T13:31:58.592Z,2.00
2018-07-07T13:34:30.819Z,2.00
2018-07-07T13:37:03.454Z,2.00
2018-07-07T13:39:34.062Z,2.00
2018-07-07T13:42:04.725Z,3.00
2018-07-07T13:44:35.273Z,3.00
2018-07-07T13:47:04.637Z,1.40
2018-07-07T13:49:33.537Z,1.80
2018-07-07T13:52:03.850Z,2.80
2018-07-07T13:54:35.501Z,1.40
2018-07-07T13:57:05.940Z,2.60
2018-07-07T13:59:39.846Z,2.80
2018-07-07T14:02:10.321Z,3.80
2018-07-07T14:04:41.294Z,3.80
2018-07-07T14:07:12.566Z,4.20
2018-07-07T14:09:52.724Z,3.60
2018-07-07T14:12:23.423Z,1.40
2018-07-07T14:14:57.355Z,4.60
2018-07-07T14:17:29.610Z,5.00
2018-07-07T14:19:59.745Z,4.80
2018-07-07T14:22:29.373Z,3.60
2018-07-07T14:25:01.284Z,4.00
2018-07-07T14:27:31.768Z,3.00
2018-07-07T14:30:02.075Z,4.00
2018-07-07T14:32:35.985Z,4.00
2018-07-07T14:35:05.521Z,3.60
2018-07-07T14:37:39.534Z,5.00
2018-07-07T14:40:11.321Z,4.20
2018-07-07T14:42:48.501Z,4.80
2018-07-07T14:45:24.695Z,4.00
2018-07-07T14:47:55.972Z,8.00
2018-07-07T14:50:26.865Z,5.00
2018-07-07T14:52:58.177Z,4.60
2018-07-07T14:55:29.702Z,3.40
2018-07-07T14:58:11.128Z,4.20
2018-07-07T15:00:42.101Z,4.00
2018-07-07T15:03:11.610Z,3.60
2018-07-07T15:05:44.856Z,4.00
2018-07-07T15:08:22.384Z,4.00
2018-07-07T15:10:58.462Z,4.60
2018-07-07T15:13:31.721Z,4.20
2018-07-07T15:16:04.360Z,3.60
2018-07-07T15:18:37.834Z,4.00
2018-07-07T15:21:07.416Z,2.40
2018-07-07T15:23:39.194Z,2.80
2018-07-07T15:26:10.326Z,4.40
2018-07-07T15:28:39.603Z,4.60
2018-07-07T15:31:09.590Z,4.00
2018-07-07T15:33:42.657Z,3.80
2018-07-07T15:36:13.198Z,2.80
2018-07-07T15:38:43.536Z,2.00
2018-07-07T15:41:13.189Z,2.40
2018-07-07T15:43:43.838Z,4.00
2018-07-07T15:46:16.603Z,5.00
2018-07-07T15:48:48.321Z,4.00
2018-07-07T15:51:19.677Z,4.20
2018-07-07T15:53:52.572Z,4.00
2018-07-07T15:56:23.305Z,4.00
2018-07-07T15:58:57.893Z,4.00
2018-07-07T16:01:29.694Z,4.00
2018-07-07T16:03:59.495Z,4.00
2018-07-07T16:06:30.321Z,4.00
2018-07-07T16:09:01.192Z,4.00
2018-07-07T16:11:30.447Z,3.00
2018-07-07T16:14:01.061Z,4.00
2018-07-07T16:16:30.716Z,7.00
2018-07-07T16:19:03.919Z,5.00
2018-07-07T16:21:36.259Z,5.40
2018-07-07T16:24:06.965Z,5.00
2018-07-07T16:26:37.769Z,6.60
2018-07-07T16:29:10.853Z,5.20
2018-07-07T16:31:40.245Z,4.00
2018-07-07T16:34:11.498Z,4.00
2018-07-07T16:36:40.887Z,7.20
2018-07-07T16:39:12.876Z,5.00
2018-07-07T16:41:42.586Z,4.80
2018-07-07T16:44:13.767Z,4.80
2018-07-07T16:46:47.778Z,5.00
2018-07-07T16:49:19.268Z,4.60
2018-07-07T16:51:49.014Z,4.00
2018-07-07T16:54:19.856Z,5.00
2018-07-07T16:56:51.338Z,4.20
2018-07-07T16:59:22.607Z,4.00
2018-07-07T17:01:54.182Z,4.40
2018-07-07T17:04:25.347Z,5.00
2018-07-07T17:06:58.124Z,4.40
2018-07-07T17:09:27.627Z,4.00
2018-07-07T17:11:57.058Z,4.40
2018-07-07T17:14:29.246Z,5.00
2018-07-07T17:16:59.170Z,3.60
2018-07-07T17:19:34.475Z,4.00
2018-07-07T17:22:04.994Z,4.40
2018-07-07T17:24:36.610Z,4.00
2018-07-07T17:27:07.512Z,3.20
2018-07-07T17:29:41.767Z,3.60
2018-07-07T17:32:11.867Z,4.00
2018-07-07T17:34:42.330Z,3.60
2018-07-07T17:37:15.626Z,4.00
2018-07-07T17:39:47.642Z,2.00
2018-07-07T17:42:17.133Z,3.00
2018-07-07T17:44:47.059Z,3.00
2018-07-07T17:47:16.832Z,1.00
2018-07-07T17:49:47.297Z,3.40
2018-07-07T17:52:17.611Z,1.00
2018-07-07T17:57:18.861Z,4.00
2018-07-07T17:59:51.797Z,2.20
2018-07-07T18:02:24.603Z,3.20
2018-07-07T18:04:57.527Z,2.00
2018-07-07T18:07:28.179Z,2.00
2018-07-07T18:09:58.637Z,2.40
2018-07-07T18:12:30.720Z,1.40
2018-07-07T18:15:05.120Z,3.60
2018-07-07T18:17:37.334Z,2.40
2018-07-07T18:20:07.419Z,2.80
2018-07-07T18:22:38.952Z,3.00
2018-07-07T18:25:10.329Z,3.20
2018-07-07T18:27:45.319Z,3.20
2018-07-07T18:30:16.359Z,1.80
2018-07-07T18:32:52.501Z,3.00
2018-07-07T18:35:23.529Z,1.80
2018-07-07T18:37:56.729Z,2.00
2018-07-07T18:40:29.181Z,8.00
2018-07-07T18:42:59.869Z,2.00
2018-07-07T18:45:31.427Z,3.60
2018-07-07T18:48:02.630Z,2.00
2018-07-07T18:50:32.508Z,3.20
2018-07-07T18:53:05.094Z,4.00
2018-07-07T18:55:36.302Z,4.20
2018-07-07T18:58:07.780Z,3.80
2018-07-07T19:00:39.415Z,4.00
2018-07-07T19:03:12.234Z,2.00
2018-07-07T19:05:44.954Z,2.40
2018-07-07T19:08:17.972Z,3.60
2018-07-07T19:11:00.030Z,2.00
2018-07-07T19:13:33.980Z,2.60
2018-07-07T19:16:06.224Z,1.60
2018-07-07T19:18:40.022Z,1.00
2018-07-07T19:21:16.387Z,2.40
2018-07-07T19:23:54.919Z,2.00
2018-07-07T19:26:34.218Z,2.80
2018-07-07T19:29:10.044Z,3.00
2018-07-07T19:31:51.222Z,4.00
2018-07-07T19:34:30.245Z,2.80
2018-07-07T19:37:05.562Z,2.40
2018-07-07T19:39:44.794Z,3.40
2018-07-07T19:42:19.866Z,3.00
2018-07-07T19:44:50.778Z,3.00
2018-07-07T19:47:24.418Z,2.20
2018-07-07T19:49:57.600Z,2.80
2018-07-07T19:52:29.312Z,2.00
2018-07-07T19:55:04.125Z,4.00
2018-07-07T19:57:36.975Z,4.00
2018-07-07T20:00:10.112Z,4.00
2018-07-07T20:02:45.803Z,3.60
2018-07-07T20:05:18.185Z,3.60
2018-07-07T20:07:49.464Z,3.60
2018-07-07T20:10:23.223Z,4.00
2018-07-07T20:12:54.657Z,2.40
2018-07-07T20:16:36.480Z,2.80
2018-07-07T20:19:25.602Z,2.00
2018-07-07T20:21:58.906Z,1.20
2018-07-07T20:24:39.891Z,2.00
2018-07-07T20:27:17.662Z,1.60
2018-07-07T20:29:56.222Z,1.00
2018-07-07T20:32:34.246Z,2.00
2018-07-07T20:35:18.437Z,1.00
2018-07-07T20:37:53.222Z,1.00
2018-07-07T20:40:29.786Z,3.00
2018-07-07T20:43:03.486Z,2.80
2018-07-07T20:45:35.625Z,1.00
2018-07-07T20:48:10.814Z,1.00
2018-07-07T20:50:50.064Z,2.80
2018-07-07T20:53:24.488Z,1.40
2018-07-07T20:55:55.156Z,1.40
2018-07-07T20:58:29.434Z,1.20
2018-07-07T21:01:01.308Z,0.80
2018-07-07T21:06:24.024Z,1.40
2018-07-07T21:09:00.268Z,1.40
2018-07-07T21:11:34.930Z,1.00
2018-07-07T21:14:11.551Z,0.00
2018-07-07T21:16:48.729Z,1.00
2018-07-07T21:19:22.590Z,0.80
2018-07-07T21:21:57.786Z,1.00
2018-07-07T21:24:30.152Z,1.00
2018-07-07T21:27:01.744Z,1.60
2018-07-07T21:29:35.531Z,1.20
2018-07-07T21:32:08.747Z,1.00
2018-07-07T21:37:46.787Z,1.00
2018-07-07T21:40:23.213Z,0.80
2018-07-07T21:42:57.504Z,1.80
2018-07-07T21:45:28.214Z,1.60
2018-07-07T21:48:02.304Z,1.00
2018-07-07T21:50:38.052Z,1.00
2018-07-07T21:53:08.148Z,1.00
2018-07-07T21:55:40.213Z,1.80
2018-07-07T21:58:15.399Z,2.40
2018-07-07T22:01:00.812Z,1.40
2018-07-07T22:03:36.562Z,1.40
2018-07-07T22:06:11.139Z,1.60
2018-07-07T22:08:41.449Z,3.00
2018-07-07T22:11:14.828Z,1.00
2018-07-07T22:13:53.893Z,1.00
2018-07-07T22:16:25.309Z,1.20
2018-07-07T22:18:57.297Z,0.80
2018-07-07T22:22:11.250Z,1.00
2018-07-07T22:24:43.339Z,2.00
2018-07-07T22:27:15.441Z,1.00
2018-07-07T22:29:44.791Z,0.80
2018-07-07T22:32:20.557Z,1.00
2018-07-07T22:34:51.757Z,1.00
2018-07-07T22:37:24.257Z,2.00
2018-07-07T22:39:55.042Z,1.00
2018-07-07T22:42:24.969Z,1.20
2018-07-07T22:44:55.611Z,1.40
2018-07-07T22:47:29.624Z,2.60
2018-07-07T22:49:59.826Z,1.00
2018-07-07T22:52:29.065Z,3.00
2018-07-07T22:54:59.532Z,1.00
2018-07-07T22:57:29.276Z,1.00
2018-07-07T22:59:58.733Z,3.00
2018-07-07T23:02:29.342Z,1.80
2018-07-07T23:05:00.189Z,1.40
2018-07-07T23:07:31.801Z,1.20
2018-07-07T23:10:04.350Z,1.00
2018-07-07T23:12:33.561Z,1.20
2018-07-07T23:15:03.311Z,1.60
2018-07-07T23:17:33.369Z,2.00
2018-07-07T23:20:04.284Z,2.00
2018-07-07T23:22:44.402Z,1.00
2018-07-07T23:25:14.770Z,1.00
2018-07-07T23:27:44.837Z,1.20
2018-07-07T23:30:19.443Z,1.00
2018-07-07T23:32:51.308Z,2.00
2018-07-07T23:35:22.149Z,1.20
2018-07-07T23:37:53.628Z,1.40
2018-07-07T23:40:22.821Z,1.80
2018-07-07T23:42:57.186Z,2.20
2018-07-07T23:45:26.624Z,1.80
2018-07-07T23:47:57.412Z,1.00
2018-07-07T23:50:28.380Z,1.60
2018-07-07T23:52:59.804Z,1.40
2018-07-07T23:55:28.984Z,1.00
2018-07-07T23:57:58.496Z,1.00
